Flight Track Log - Related Links

Times and Time Zones

All times are in EDT time to prevent confusion due to time zone crossing. See the SWA1250 flight status page for this flight to view local times or setup timezone preferences in your user account.

Time Position Orientation Groundspeed Altitude Reporting Facility
EDT Latitude Longitude Course Direction KTS MPH feet Rate Location/Type
Tue 11:38:00 AM 43.0133 -83.8089 61° Northeast 176 203 5,200  Level Cleveland Center
Tue 11:39:00 AM 43.0511 -83.7172 61° Northeast 176 203 9,000 3,950 Climbing Cleveland Center
Tue 11:40:00 AM 43.0586 -83.6008 85° East 257 296 13,100 4,100 Climbing Cleveland Center
Tue 11:41:00 AM 42.9819 -83.5772 167° South 192 221 17,200 3,300 Climbing Cleveland Center
Tue 11:42:00 AM 42.8942 -83.5900 186° South 242 278 19,700 2,800 Climbing Cleveland Center
Tue 11:43:00 AM 42.7978 -83.6108 189° South 311 358 22,800 2,900 Climbing Cleveland Center
Tue 11:44:00 AM 42.6950 -83.6286 187° South 349 402 25,500 2,600 Climbing Cleveland Center
Tue 11:45:00 AM 42.5842 -83.6486 188° South 381 438 28,000 2,400 Climbing Cleveland Center
Tue 11:46:00 AM 42.4689 -83.6683 187° South 405 466 30,300 2,250 Climbing Cleveland Center
Tue 11:47:00 AM 42.3536 -83.6908 188° South 417 480 32,500 2,250 Climbing Cleveland Center
Tue 11:48:00 AM 42.2486 -83.7139 189° South 426 490 34,800 2,050 Climbing Cleveland Center
Tue 11:49:00 AM 42.1314 -83.7303 186° South 426 490 36,600 1,850 Climbing Cleveland Center
Tue 11:50:00 AM 42.0164 -83.7500 187° South 426 490 38,500 1,700 Climbing Cleveland Center
Tue 11:51:00 AM 41.9031 -83.7694 187° South 426 490 40,000 750 Climbing Cleveland Center
Tue 11:52:00 AM 41.7881 -83.7886 187° South 426 490 40,000  Level Cleveland Center
Tue 11:53:00 AM 41.6733 -83.7914 181° South 426 490 40,000  Level Cleveland Center
Tue 11:54:00 AM 41.5544 -83.7883 179° South 426 490 40,000  Level Cleveland Center
Tue 11:55:00 AM 41.4358 -83.7822 178° South 420 483 40,000  Level Cleveland Center
Tue 11:56:00 AM 41.3150 -83.7736 177° South 420 483 40,000 -200 Level Cleveland Center
Tue 11:57:00 AM 41.1964 -83.7678 178° South 425 489 39,600 -500 Descending Cleveland Center
Tue 11:58:00 AM 41.0819 -83.7594 177° South 430 495 39,000 -298 Descending Cleveland Center
Tue 11:59:01 AM 40.9589 -83.7517 177° South 434 499 39,000  Level Indianapolis Center
Tue 12:00:02 PM 40.8361 -83.7453 178° South 436 502 39,000  Level Indianapolis Center
Tue 12:01:04 PM 40.6933 -83.7383 178° South 437 503 39,000  Level Indianapolis Center
Tue 12:02:05 PM 40.5719 -83.7322 178° South 432 497 39,000  Level Indianapolis Center
Tue 12:03:07 PM 40.4500 -83.7258 178° South 434 499 39,000  Level Indianapolis Center
Tue 12:04:08 PM 40.3286 -83.7189 178° South 434 499 39,000  Level Indianapolis Center
Tue 12:05:10 PM 40.2058 -83.7125 178° South 438 504 39,000  Level Indianapolis Center
Tue 12:06:11 PM 40.0858 -83.7081 178° South 438 504 39,000  Level Indianapolis Center
Tue 12:07:12 PM 39.9589 -83.7008 178° South 444 511 39,000  Level Indianapolis Center
Tue 12:08:14 PM 39.8389 -83.6947 178° South 445 512 39,000  Level Indianapolis Center
Tue 12:09:15 PM 39.6936 -83.6878 178° South 445 512 39,000  Level Indianapolis Center
Tue 12:10:17 PM 39.5711 -83.6814 178° South 440 506 39,000  Level Indianapolis Center
Tue 12:11:18 PM 39.4489 -83.6747 178° South 438 504 39,000  Level Indianapolis Center
Tue 12:12:20 PM 39.3272 -83.6675 177° South 433 498 39,000 -390 Level Indianapolis Center
Tue 12:13:21 PM 39.2053 -83.6622 178° South 436 502 38,200 -878 Descending Indianapolis Center
Tue 12:14:23 PM 39.0856 -83.6564 178° South 427 491 37,200 -1,038 Descending Indianapolis Center
Tue 12:16:26 PM 38.8408 -83.6442 178° South 442 509 35,000 -717 Descending Indianapolis Center
Tue 12:17:27 PM 38.7156 -83.6389 178° South 446 513 35,000  Level Indianapolis Center
Tue 12:18:28 PM 38.5817 -83.6306 177° South 442 509 35,000  Level Indianapolis Center
Tue 12:19:30 PM 38.4575 -83.6253 178° South 444 511 35,000  Level Indianapolis Center
Tue 12:21:00 PM 38.2902 -83.6010 174° South  Level FlightAware Approximate
Tue 12:21:33 PM 38.2089 -83.6131 174° South 445 512 35,000  Level Indianapolis Center
Tue 12:22:34 PM 38.0847 -83.6069 178° South 446 513 35,000  Level Indianapolis Center
Tue 12:23:36 PM 37.9392 -83.6008 178° South 448 516 35,000  Level Indianapolis Center
Tue 12:24:37 PM 37.8156 -83.5942 178° South 446 513 35,000  Level Indianapolis Center
Tue 12:25:38 PM 37.6911 -83.5878 178° South 447 514 35,000  Level Indianapolis Center
Tue 12:26:40 PM 37.5642 -83.5822 178° South 454 522 35,000  Level Indianapolis Center
Tue 12:27:41 PM 37.4364 -83.5783 179° South 458 527 35,000  Level Indianapolis Center
Tue 12:28:43 PM 37.3100 -83.6083 191° South 463 533 35,000  Level Indianapolis Center
Tue 12:29:44 PM 37.1856 -83.6378 191° South 458 527 35,000  Level Indianapolis Center
Tue 12:30:46 PM 37.0397 -83.6711 190° South 457 526 35,000  Level Indianapolis Center
Tue 12:31:47 PM 36.9164 -83.7003 191° South 455 524 35,000  Level Indianapolis Center
Tue 12:32:49 PM 36.7925 -83.7286 190° South 452 520 35,000  Level Indianapolis Center
Tue 12:33:50 PM 36.6672 -83.7581 191° South 458 527 35,000  Level Indianapolis Center
Tue 12:34:52 PM 36.5431 -83.7825 189° South 452 520 35,000  Level Indianapolis Center
Tue 12:35:54 PM 36.4186 -83.7689 175° South 448 516 35,000  Level Indianapolis Center
Tue 12:36:55 PM 36.2936 -83.7589 176° South 448 516 35,000  Level Indianapolis Center
Tue 12:37:57 PM 36.1683 -83.7464 175° South 449 517 35,000  Level Indianapolis Center
Tue 12:39:08 PM 36.0142 -83.7333 176° South 442 509 35,000  Level Atlanta Center
Tue 12:40:08 PM 35.8911 -83.7236 176° South 447 514 35,000  Level Atlanta Center
Tue 12:41:08 PM 35.7658 -83.7111 175° South 447 514 35,000  Level Atlanta Center
Tue 12:42:08 PM 35.6428 -83.7014 176° South 447 514 35,000  Level Atlanta Center
Tue 12:43:08 PM 35.5194 -83.6892 175° South 441 507 35,000  Level Atlanta Center
Tue 12:44:08 PM 35.3964 -83.6769 175° South 441 507 35,000  Level Atlanta Center
Tue 12:45:08 PM 35.2733 -83.6647 175° South 441 507 35,000  Level Atlanta Center
Tue 12:46:08 PM 35.1481 -83.6553 176° South 441 507 35,000  Level Atlanta Center
Tue 12:47:08 PM 35.0208 -83.6431 176° South 446 513 35,000  Level Atlanta Center
Tue 12:48:08 PM 34.8850 -83.6286 175° South 451 519 35,000  Level Atlanta Center
Tue 12:49:08 PM 34.7578 -83.6192 177° South 451 519 35,000  Level Atlanta Center
Tue 12:50:08 PM 34.6303 -83.6072 176° South 463 533 35,000  Level Atlanta Center
Tue 12:51:08 PM 34.5178 -83.5975 176° South 457 526 35,000  Level Atlanta Center
Tue 12:52:08 PM 34.3903 -83.5856 176° South 462 532 35,000  Level Atlanta Center
Tue 12:53:08 PM 34.2650 -83.5739 176° South 462 532 35,000  Level Atlanta Center
Tue 12:54:08 PM 34.1336 -83.5619 176° South 462 532 35,000  Level Atlanta Center
Tue 12:55:08 PM 34.0083 -83.5528 177° South 462 532 35,000  Level Atlanta Center
Tue 12:56:08 PM 33.8706 -83.5408 176° South 462 532 35,000  Level Atlanta Center
Tue 12:57:08 PM 33.7431 -83.5292 176° South 462 532 35,000  Level Atlanta Center
Tue 12:58:08 PM 33.6158 -83.5175 176° South 462 532 35,000  Level Atlanta Center
Tue 12:59:08 PM 33.4906 -83.5083 177° South 462 532 35,000  Level Atlanta Center
Tue 01:00:08 PM 33.3653 -83.4967 176° South 462 532 35,000  Level Atlanta Center
Tue 01:01:08 PM 33.2336 -83.4875 177° South 462 532 35,000  Level Atlanta Center
Tue 01:02:08 PM 33.1103 -83.4758 175° South 457 526 35,000  Level Atlanta Center
Tue 01:03:08 PM 32.9850 -83.4667 176° South 463 533 35,000  Level Atlanta Center
Tue 01:04:08 PM 32.8556 -83.4553 176° South 463 533 35,000  Level Atlanta Center
Tue 01:05:08 PM 32.7303 -83.4436 176° South 463 533 35,000  Level Atlanta Center
Tue 01:06:08 PM 32.6031 -83.4322 176° South 458 527 35,000  Level Atlanta Center
Tue 01:07:08 PM 32.4736 -83.4233 177° South 463 533 35,000  Level Atlanta Center
Tue 01:08:08 PM 32.3461 -83.4094 175° South 463 533 35,000  Level Atlanta Center
Tue 01:09:08 PM 32.2186 -83.4006 177° South 463 533 35,000 -500 Level Atlanta Center
Tue 01:10:08 PM 32.0933 -83.3892 176° South 463 533 34,000 -1,000 Descending Atlanta Center
Tue 01:11:08 PM 31.9661 -83.3753 175° South 463 533 33,000 -723 Descending Atlanta Center
Tue 01:11:31 PM 31.9172 -83.3722 177° South 459 528 33,000  Level Jacksonville Center
Tue 01:12:31 PM 31.8128 -83.3644 176° South 459 528 33,000  Level Jacksonville Center
Tue 01:13:31 PM 31.6750 -83.3517 175° South 459 528 33,000  Level Jacksonville Center
Tue 01:14:31 PM 31.5478 -83.3411 176° South 459 528 33,000  Level Jacksonville Center
Tue 01:15:31 PM 31.4308 -83.2967 162° South 449 517 33,000  Level Jacksonville Center
Tue 01:16:31 PM 31.3183 -83.2281 152° Southeast 449 517 33,000 -50 Level Jacksonville Center
Tue 01:17:31 PM 31.2078 -83.1622 153° Southeast 449 517 32,900 -550 Descending Jacksonville Center
Tue 01:18:31 PM 31.0911 -83.1086 159° South 449 517 31,900 -950 Descending Jacksonville Center
Tue 01:19:31 PM 30.9700 -83.1203 185° South 426 490 31,000 -450 Descending Jacksonville Center
Tue 01:20:31 PM 30.8467 -83.1344 186° South 431 496 31,000  Level Jacksonville Center
Tue 01:21:31 PM 30.7236 -83.1464 185° South 437 503 31,000  Level Jacksonville Center
Tue 01:22:31 PM 30.6003 -83.1581 185° South 443 510 31,000  Level Jacksonville Center
Tue 01:23:31 PM 30.4728 -83.1744 186° South 449 517 31,000  Level Jacksonville Center
Tue 01:24:31 PM 30.3475 -83.1886 186° South 454 522 31,000  Level Jacksonville Center
Tue 01:25:31 PM 30.2222 -83.2003 185° South 454 522 31,000  Level Jacksonville Center
Tue 01:26:31 PM 30.0908 -83.2167 186° South 466 536 31,000  Level Jacksonville Center
Tue 01:27:31 PM 29.9508 -83.2331 186° South 466 536 31,000  Level Jacksonville Center
Tue 01:28:31 PM 29.8256 -83.2469 185° South 466 536 31,000  Level Jacksonville Center
Tue 01:29:31 PM 29.7044 -83.2608 186° South 471 542 31,000  Level Jacksonville Center
Tue 01:30:31 PM 29.5728 -83.2722 184° South 476 548 31,000  Level Jacksonville Center
Tue 01:31:31 PM 29.4286 -83.2861 185° South 476 548 31,000 -450 Level Jacksonville Center
Tue 01:32:31 PM 29.3014 -83.2997 185° South 476 548 30,100 -950 Descending Jacksonville Center
Tue 01:33:31 PM 29.1739 -83.3136 185° South 476 548 29,100 -1,000 Descending Jacksonville Center
Tue 01:34:31 PM 29.0467 -83.3250 184° South 471 542 28,100 -1,050 Descending Jacksonville Center
Tue 01:35:31 PM 28.9236 -83.3194 178° South 461 531 27,000 -1,050 Descending Jacksonville Center
Tue 01:36:31 PM 28.8153 -83.2528 152° Southeast 432 497 26,000 -1,000 Descending Jacksonville Center
Tue 01:37:31 PM 28.7067 -83.1836 151° Southeast 442 509 25,000 -1,000 Descending Jacksonville Center
Tue 01:38:31 PM 28.6006 -83.1194 152° Southeast 442 509 24,000 -1,000 Descending Jacksonville Center
Tue 01:39:31 PM 28.4983 -83.0508 149° Southeast 432 497 23,000 -950 Descending Jacksonville Center
Tue 01:40:31 PM 28.4044 -82.9989 154° Southeast 426 490 22,100 -950 Descending Jacksonville Center
Tue 01:41:31 PM 28.3064 -82.9350 150° Southeast 415 478 21,100 -667 Descending Jacksonville Center
Tue 01:42:10 PM 28.2364 -82.8908 151° Southeast 407 468 21,000 -61 Descending Miami Center
Tue 01:43:10 PM 28.1592 -82.8442 152° Southeast 366 421 21,000 -150 Level Miami Center
Tue 01:44:10 PM 28.0739 -82.7906 151° Southeast 354 407 20,700 -700 Descending Miami Center
Tue 01:45:10 PM 27.9783 -82.7267 149° Southeast 354 407 19,600 -1,050 Descending Miami Center
Tue 01:46:10 PM 27.9014 -82.6711 147° Southeast 346 398 18,600 -850 Descending Miami Center
Tue 01:47:10 PM 27.8525 -82.5864 123° Southeast 332 382 17,900 -800 Descending Miami Center
Tue 01:48:10 PM 27.8406 -82.4708 97° East 346 398 17,000 -1,450 Descending Miami Center
Tue 01:49:10 PM 27.8781 -82.3622 69° East 331 381 15,000 -1,000 Descending Miami Center
Tue 01:50:10 PM 27.9114 -82.2558 70° East 343 395 15,000 -382 Level Miami Center
Tue 01:51:47 PM 27.9667 -82.0667 72° East 361 415 14,000 -764 Descending Orlando TRACON
Tue 01:52:47 PM 28.0167 -81.9667 60° Northeast 360 414 13,000 -500 Descending Orlando TRACON
Tue 01:53:47 PM 28.0500 -81.8667 69° East 354 407 13,000  Level Orlando TRACON
Tue 01:54:47 PM 28.1000 -81.7667 60° Northeast 353 406 13,000  Level Orlando TRACON
Tue 01:55:47 PM 28.1667 -81.6833 48° Northeast 361 415 13,000 -1,150 Level Orlando TRACON
Tue 01:56:47 PM 28.2000 -81.5833 69° East 353 406 10,700 -1,488 Descending Orlando TRACON
Tue 01:57:48 PM 28.2500 -81.4833 60° Northeast 322 371 10,000 -744 Descending Orlando TRACON
Tue 01:58:48 PM 28.2833 -81.4000 66° East 309 356 9,200 -500 Descending Orlando TRACON
Tue 01:59:48 PM 28.3000 -81.3000 79° East 295 339 9,000 -600 Descending Orlando TRACON
Tue 02:00:48 PM 28.3667 -81.2500 33° Northeast 286 329 8,000 -1,250 Descending Orlando TRACON
Tue 02:01:48 PM 28.4500 -81.2333 10° North 278 320 6,500 -1,200 Descending Orlando TRACON
Tue 02:02:48 PM 28.5167 -81.2000 24° Northeast 219 252 5,600 -1,000 Descending Orlando TRACON
Tue 02:03:48 PM 28.5667 -81.2167 344° North 205 236 4,500 -1,550 Descending Orlando TRACON
Tue 02:04:48 PM 28.5667 -81.2833 270° West 199 229 2,500 -1,200 Descending Orlando TRACON
Tue 02:05:48 PM 28.5167 -81.2833 180° South 169 194 2,100 -750 Descending Orlando TRACON
Tue 02:06:48 PM 28.4667 -81.3000 196° South 136 157 1,000 -1,100 Descending Orlando TRACON

Login

Don't have an account? Register now (free) for customized features, flight alerts, and more!